createdAt,value
2023-04-04T00:01:21.536Z,0.90
2023-04-04T00:02:54.657Z,0.90
2023-04-04T00:04:27.819Z,1.00
2023-04-04T00:06:00.717Z,0.90
2023-04-04T00:07:33.460Z,0.90
2023-04-04T00:09:06.528Z,0.90
2023-04-04T00:10:41.386Z,0.90
2023-04-04T00:12:14.388Z,0.90
2023-04-04T00:13:47.171Z,0.90
2023-04-04T00:15:19.133Z,0.90
2023-04-04T00:16:51.948Z,0.90
2023-04-04T00:18:24.724Z,0.90
2023-04-04T00:19:58.017Z,0.90
2023-04-04T00:21:31.640Z,0.90
2023-04-04T00:23:04.383Z,0.90
2023-04-04T00:24:37.556Z,0.90
2023-04-04T00:26:11.636Z,0.90
2023-04-04T00:27:44.398Z,0.90
2023-04-04T00:29:17.330Z,0.90
2023-04-04T00:30:50.047Z,0.90
2023-04-04T00:32:22.102Z,0.90
2023-04-04T00:33:54.960Z,0.90
2023-04-04T00:35:28.012Z,0.90
2023-04-04T00:37:00.767Z,0.90
2023-04-04T00:38:33.783Z,0.90
2023-04-04T00:40:08.521Z,0.90
2023-04-04T00:41:42.717Z,0.90
2023-04-04T00:43:16.366Z,0.90
2023-04-04T00:44:49.171Z,0.90
2023-04-04T00:46:22.509Z,0.80
2023-04-04T00:47:57.063Z,0.80
2023-04-04T00:49:28.863Z,0.80
2023-04-04T00:51:02.374Z,0.80
2023-04-04T00:52:35.683Z,0.80
2023-04-04T00:54:08.586Z,0.80
2023-04-04T00:55:43.377Z,0.80
2023-04-04T00:57:18.045Z,0.80
2023-04-04T00:58:51.065Z,0.80
2023-04-04T01:00:24.241Z,0.80
2023-04-04T01:01:57.164Z,0.80
2023-04-04T01:03:30.677Z,0.80
2023-04-04T01:05:04.861Z,0.80
2023-04-04T01:06:37.796Z,0.80
2023-04-04T01:08:10.831Z,0.70
2023-04-04T01:09:43.740Z,0.70
2023-04-04T01:11:17.848Z,0.70
2023-04-04T01:12:52.728Z,0.70
2023-04-04T01:14:25.769Z,0.70
2023-04-04T01:15:57.672Z,0.70
2023-04-04T01:17:30.833Z,0.70
2023-04-04T01:19:06.752Z,0.70
2023-04-04T01:20:48.104Z,0.70
2023-04-04T01:22:20.650Z,0.70
2023-04-04T01:24:01.123Z,0.70
2023-04-04T01:25:35.831Z,0.70
2023-04-04T01:27:07.824Z,0.60
2023-04-04T01:28:41.029Z,0.60
2023-04-04T01:30:15.766Z,0.60
2023-04-04T01:31:53.861Z,0.50
2023-04-04T01:33:30.105Z,0.50
2023-04-04T01:35:14.694Z,0.50
2023-04-04T01:36:57.224Z,0.50
2023-04-04T01:38:35.203Z,0.50
2023-04-04T01:40:18.103Z,0.50
2023-04-04T01:41:52.883Z,0.40
2023-04-04T01:43:25.678Z,0.40
2023-04-04T01:44:58.453Z,0.40
2023-04-04T01:46:31.453Z,0.40
2023-04-04T01:48:04.396Z,0.40
2023-04-04T01:49:37.165Z,0.40
2023-04-04T01:51:10.219Z,0.40
2023-04-04T01:52:42.371Z,0.40
2023-04-04T01:54:15.337Z,0.40
2023-04-04T01:55:48.054Z,0.40
2023-04-04T01:57:21.510Z,0.40
2023-04-04T01:58:54.306Z,0.30
2023-04-04T02:00:26.350Z,0.30
2023-04-04T02:01:59.154Z,0.30
2023-04-04T02:03:31.933Z,0.30
2023-04-04T02:05:04.338Z,0.30
2023-04-04T02:06:37.062Z,0.30
2023-04-04T02:08:09.793Z,0.30
2023-04-04T02:09:41.612Z,0.20
2023-04-04T02:11:14.341Z,0.20
2023-04-04T02:12:47.448Z,0.20
2023-04-04T02:14:20.193Z,0.30
2023-04-04T02:15:52.279Z,0.30
2023-04-04T02:17:25.652Z,0.20
2023-04-04T02:18:58.639Z,0.10
2023-04-04T02:20:31.422Z,0.20
2023-04-04T02:22:03.249Z,0.20
2023-04-04T02:23:36.133Z,0.20
2023-04-04T02:25:08.622Z,0.20
2023-04-04T02:26:41.787Z,0.20
2023-04-04T02:28:15.225Z,0.20
2023-04-04T02:29:48.591Z,0.20
2023-04-04T02:31:21.800Z,0.20
2023-04-04T02:32:54.623Z,0.20
2023-04-04T02:34:27.750Z,0.20
2023-04-04T02:36:00.260Z,0.20
2023-04-04T02:37:33.044Z,0.20
2023-04-04T02:39:05.784Z,0.20
2023-04-04T02:40:39.860Z,0.20
2023-04-04T02:42:12.941Z,0.20
2023-04-04T02:43:47.002Z,0.20
2023-04-04T02:45:19.812Z,0.20
2023-04-04T02:46:51.645Z,0.20
2023-04-04T02:48:25.634Z,0.20
2023-04-04T02:49:58.341Z,0.20
2023-04-04T02:51:31.137Z,0.20
2023-04-04T02:53:04.459Z,0.20
2023-04-04T02:54:37.400Z,0.20
2023-04-04T02:56:10.345Z,0.20
2023-04-04T02:57:43.086Z,0.20
2023-04-04T02:59:18.083Z,0.10
2023-04-04T03:00:54.602Z,0.10
2023-04-04T03:02:27.437Z,0.10
2023-04-04T03:03:59.300Z,0.10
2023-04-04T03:05:32.762Z,0.10
2023-04-04T03:07:05.904Z,0.10
2023-04-04T03:08:38.928Z,0.10
2023-04-04T03:10:12.484Z,0.10
2023-04-04T03:11:45.262Z,0.10
2023-04-04T03:13:18.018Z,0.10
2023-04-04T03:14:52.299Z,0.10
2023-04-04T03:16:24.247Z,0.10
2023-04-04T03:17:57.188Z,0.10
2023-04-04T03:19:30.046Z,0.10
2023-04-04T03:21:02.817Z,0.10
2023-04-04T03:22:35.852Z,0.10
2023-04-04T03:24:08.925Z,0.10
2023-04-04T03:25:42.180Z,0.10
2023-04-04T03:27:14.017Z,0.00
2023-04-04T03:28:47.147Z,0.10
2023-04-04T03:30:21.593Z,0.10
2023-04-04T03:31:54.510Z,0.00
2023-04-04T03:33:27.464Z,0.00
2023-04-04T03:35:00.355Z,0.00
2023-04-04T03:36:33.190Z,0.00
2023-04-04T03:38:06.026Z,0.00
2023-04-04T03:39:38.518Z,0.00
2023-04-04T03:41:11.284Z,0.00
2023-04-04T03:42:43.308Z,-0.10
2023-04-04T03:44:16.096Z,0.00
2023-04-04T03:45:50.398Z,0.00
2023-04-04T03:47:22.379Z,0.00
2023-04-04T03:48:55.170Z,0.00
2023-04-04T03:50:27.079Z,-0.10
2023-04-04T03:51:59.938Z,0.00
2023-04-04T03:53:33.131Z,0.00
2023-04-04T03:55:07.419Z,0.00
2023-04-04T03:56:40.226Z,-0.10
2023-04-04T03:58:13.008Z,-0.10
2023-04-04T03:59:46.194Z,-0.10
2023-04-04T04:01:20.265Z,-0.10
2023-04-04T04:02:53.016Z,-0.10
2023-04-04T04:04:25.985Z,-0.10
2023-04-04T04:05:58.737Z,-0.10
2023-04-04T04:07:31.568Z,-0.10
2023-04-04T04:09:04.600Z,-0.10
2023-04-04T04:10:37.357Z,-0.20
2023-04-04T04:12:10.179Z,-0.20
2023-04-04T04:13:42.918Z,-0.20
2023-04-04T04:15:14.784Z,-0.40
2023-04-04T04:16:48.943Z,-0.20
2023-04-04T04:18:21.747Z,-0.30
2023-04-04T04:19:54.720Z,-0.30
2023-04-04T04:21:27.450Z,-0.30
2023-04-04T04:23:00.326Z,-0.30
2023-04-04T04:24:32.095Z,-0.30
2023-04-04T04:26:05.116Z,-0.30
2023-04-04T04:27:37.824Z,-0.20
2023-04-04T04:29:10.996Z,-0.30
2023-04-04T04:30:44.137Z,-0.30
2023-04-04T04:32:19.145Z,-0.30
2023-04-04T04:33:52.232Z,-0.40
2023-04-04T04:35:25.049Z,-0.40
2023-04-04T04:36:57.871Z,-0.30
2023-04-04T04:38:30.992Z,-0.40
2023-04-04T04:40:04.400Z,-0.40
2023-04-04T04:41:38.496Z,-0.40
2023-04-04T04:43:11.326Z,-0.40
2023-04-04T04:44:44.365Z,-0.40
2023-04-04T04:46:17.093Z,-0.40
2023-04-04T04:47:51.411Z,-0.40
2023-04-04T04:49:24.426Z,-0.40
2023-04-04T04:50:57.460Z,-0.30
2023-04-04T04:52:31.632Z,-0.30
2023-04-04T04:54:04.378Z,-0.30
2023-04-04T04:55:37.506Z,-0.30
2023-04-04T04:57:10.525Z,-0.40
2023-04-04T04:58:45.020Z,-0.40
2023-04-04T05:00:19.034Z,-0.40
2023-04-04T05:01:51.772Z,-0.30
2023-04-04T05:03:25.952Z,-0.30
2023-04-04T05:04:58.652Z,-0.40
2023-04-04T05:06:31.466Z,-0.40
2023-04-04T05:08:04.585Z,-0.50
2023-04-04T05:09:37.287Z,-0.40
2023-04-04T05:11:10.004Z,-0.40
2023-04-04T05:12:43.461Z,-0.40
2023-04-04T05:14:16.190Z,-0.40
2023-04-04T05:15:48.926Z,-0.40
2023-04-04T05:17:22.959Z,-0.40
2023-04-04T05:18:57.182Z,-0.40
2023-04-04T05:20:29.972Z,-0.40
2023-04-04T05:22:03.109Z,-0.40
2023-04-04T05:23:35.827Z,-0.40
2023-04-04T05:25:09.081Z,-0.30
2023-04-04T05:26:42.160Z,-0.30
2023-04-04T05:28:14.885Z,-0.40
2023-04-04T05:29:48.264Z,-0.40
2023-04-04T05:31:21.319Z,-0.30
2023-04-04T05:32:54.054Z,-0.30
2023-04-04T05:34:28.135Z,-0.30
2023-04-04T05:36:00.638Z,-0.30
2023-04-04T05:37:34.844Z,-0.30
2023-04-04T05:39:07.703Z,-0.30
2023-04-04T05:40:40.660Z,-0.30
2023-04-04T05:42:13.627Z,-0.30
2023-04-04T05:43:46.459Z,-0.30
2023-04-04T05:45:19.142Z,-0.20
2023-04-04T05:46:51.883Z,-0.30
2023-04-04T05:48:24.671Z,-0.20
2023-04-04T05:49:58.764Z,-0.20
2023-04-04T05:51:31.462Z,-0.20
2023-04-04T05:53:04.664Z,-0.10
2023-04-04T05:54:37.434Z,-0.10
2023-04-04T05:56:10.448Z,-0.10
2023-04-04T05:57:49.221Z,-0.10
2023-04-04T05:59:22.054Z,0.00
2023-04-04T06:00:54.865Z,0.00
2023-04-04T06:02:29.243Z,0.10
2023-04-04T06:04:02.072Z,0.00
2023-04-04T06:05:36.114Z,0.10
2023-04-04T06:07:08.836Z,0.10
2023-04-04T06:08:53.057Z,0.10
2023-04-04T06:10:26.548Z,0.20
2023-04-04T06:11:59.272Z,0.20
2023-04-04T06:13:31.988Z,0.20
2023-04-04T06:15:05.037Z,0.20
2023-04-04T06:16:38.026Z,0.30
2023-04-04T06:18:11.093Z,0.30
2023-04-04T06:19:43.848Z,0.40
2023-04-04T06:21:17.944Z,0.40
2023-04-04T06:22:50.770Z,0.50
2023-04-04T06:24:23.529Z,0.50
2023-04-04T06:25:56.439Z,0.60
2023-04-04T06:27:29.340Z,0.60
2023-04-04T06:29:02.064Z,0.70
2023-04-04T06:30:39.198Z,0.80
2023-04-04T06:32:12.182Z,0.80
2023-04-04T06:33:45.000Z,0.90
2023-04-04T06:35:20.060Z,0.90
2023-04-04T06:36:54.378Z,1.00
2023-04-04T06:38:29.276Z,1.00
2023-04-04T06:40:02.001Z,1.00
2023-04-04T06:41:34.762Z,1.00
2023-04-04T06:43:07.472Z,1.00
2023-04-04T06:44:40.178Z,1.10
2023-04-04T06:46:12.971Z,1.10
2023-04-04T06:47:46.546Z,1.10
2023-04-04T06:49:19.289Z,1.20
2023-04-04T06:50:52.141Z,1.20
2023-04-04T06:52:27.649Z,1.30
2023-04-04T06:54:02.570Z,1.40
2023-04-04T06:55:35.863Z,1.40
2023-04-04T06:57:08.559Z,1.50
2023-04-04T06:58:41.250Z,1.50
2023-04-04T07:00:15.610Z,1.60
2023-04-04T07:01:48.320Z,1.60
2023-04-04T07:03:21.187Z,1.70
2023-04-04T07:04:53.915Z,1.70
2023-04-04T07:06:26.717Z,1.80
2023-04-04T07:08:00.780Z,1.80
2023-04-04T07:09:33.503Z,1.90
2023-04-04T07:11:07.972Z,2.00
2023-04-04T07:12:41.068Z,2.10
2023-04-04T07:14:14.510Z,2.10
2023-04-04T07:15:50.039Z,2.10
2023-04-04T07:17:25.216Z,2.20
2023-04-04T07:18:58.464Z,2.20
2023-04-04T07:20:32.221Z,2.20
2023-04-04T07:22:04.982Z,2.30
2023-04-04T07:23:39.030Z,2.40
2023-04-04T07:25:12.298Z,2.40
2023-04-04T07:26:45.201Z,2.50
2023-04-04T07:28:17.910Z,2.50
2023-04-04T07:29:50.630Z,2.50
2023-04-04T07:31:23.360Z,2.50
2023-04-04T07:32:59.045Z,2.60
2023-04-04T07:34:31.788Z,2.60
2023-04-04T07:36:04.948Z,2.70
2023-04-04T07:37:38.522Z,2.70
2023-04-04T07:39:12.561Z,2.80
2023-04-04T07:40:45.370Z,2.70
2023-04-04T07:42:22.908Z,2.80
2023-04-04T07:43:55.713Z,2.90
2023-04-04T07:45:28.551Z,2.90
2023-04-04T07:47:09.294Z,3.00
2023-04-04T07:48:42.858Z,3.00
2023-04-04T07:50:16.043Z,3.10
2023-04-04T07:51:48.910Z,3.10
2023-04-04T07:53:22.519Z,3.20
2023-04-04T07:54:56.666Z,3.30
2023-04-04T07:56:29.409Z,3.50
2023-04-04T07:58:02.425Z,3.70
2023-04-04T07:59:35.172Z,3.90
2023-04-04T08:01:07.882Z,4.30
2023-04-04T08:02:41.007Z,4.50
2023-04-04T08:04:13.772Z,4.80
2023-04-04T08:05:46.714Z,5.00
2023-04-04T08:07:19.421Z,5.10
2023-04-04T08:08:52.283Z,5.20
2023-04-04T08:10:27.337Z,5.40
2023-04-04T08:12:00.093Z,5.50
2023-04-04T08:13:32.798Z,5.80
2023-04-04T08:15:06.125Z,6.00
2023-04-04T08:16:38.813Z,6.20
2023-04-04T08:18:11.624Z,6.40
2023-04-04T08:19:44.334Z,6.60
2023-04-04T08:21:17.360Z,6.70
2023-04-04T08:22:50.095Z,6.90
2023-04-04T08:24:25.106Z,7.10
2023-04-04T08:26:00.310Z,7.30
2023-04-04T08:27:34.030Z,7.60
2023-04-04T08:29:07.594Z,7.80
2023-04-04T08:30:41.192Z,7.90
2023-04-04T08:32:14.712Z,8.10
2023-04-04T08:33:47.993Z,8.20
2023-04-04T08:35:20.887Z,8.40
2023-04-04T08:36:54.019Z,8.50
2023-04-04T08:38:27.155Z,8.70
2023-04-04T08:40:00.435Z,8.80
2023-04-04T08:41:35.674Z,8.90
2023-04-04T08:43:09.236Z,9.00
2023-04-04T08:44:45.364Z,9.10
2023-04-04T08:46:18.142Z,9.20
2023-04-04T08:47:52.977Z,9.30
2023-04-04T08:49:28.845Z,9.40
2023-04-04T08:51:03.305Z,9.50
2023-04-04T08:52:36.817Z,9.50
2023-04-04T08:54:10.398Z,9.60
2023-04-04T08:55:43.991Z,9.70
2023-04-04T08:57:18.087Z,9.70
2023-04-04T08:58:51.143Z,9.90
2023-04-04T09:00:24.541Z,10.00
2023-04-04T09:02:01.812Z,10.10
2023-04-04T09:03:36.685Z,10.20
2023-04-04T09:05:10.771Z,10.30
2023-04-04T09:06:43.930Z,10.40
2023-04-04T09:08:19.014Z,10.40
2023-04-04T09:09:52.990Z,10.40
2023-04-04T09:11:27.964Z,10.30
2023-04-04T09:13:14.629Z,10.30
2023-04-04T09:14:51.641Z,10.20
2023-04-04T09:16:24.678Z,10.20
2023-04-04T09:17:57.462Z,10.30
2023-04-04T09:19:30.182Z,10.40
2023-04-04T09:21:10.635Z,10.60
2023-04-04T09:22:46.236Z,10.60
2023-04-04T09:24:19.200Z,10.50
2023-04-04T09:26:03.226Z,10.40
2023-04-04T09:27:36.923Z,10.30
2023-04-04T09:29:10.990Z,10.40
2023-04-04T09:30:44.550Z,10.40
2023-04-04T09:32:18.054Z,10.50
2023-04-04T09:33:51.166Z,10.70
2023-04-04T09:35:24.259Z,10.70
2023-04-04T09:36:58.344Z,10.80
2023-04-04T09:38:32.264Z,10.80
2023-04-04T09:40:06.708Z,10.80
2023-04-04T09:41:40.911Z,10.90
2023-04-04T09:43:14.276Z,11.10
2023-04-04T09:44:48.630Z,11.20
2023-04-04T09:46:21.714Z,11.30
2023-04-04T09:47:55.163Z,11.30
2023-04-04T09:49:27.911Z,11.20
2023-04-04T09:51:01.270Z,11.00
2023-04-04T09:52:35.664Z,10.80
2023-04-04T09:54:18.705Z,10.70
2023-04-04T09:55:59.682Z,10.80
2023-04-04T09:57:35.173Z,10.90
2023-04-04T09:59:08.623Z,11.10
2023-04-04T10:00:48.207Z,11.30
2023-04-04T10:02:20.966Z,11.40
2023-04-04T10:03:54.752Z,11.30
2023-04-04T10:05:28.863Z,11.20
2023-04-04T10:07:01.632Z,11.00
2023-04-04T10:08:35.951Z,10.80
2023-04-04T10:10:10.289Z,10.80
2023-04-04T10:11:43.307Z,10.70
2023-04-04T10:13:23.248Z,10.70
2023-04-04T10:14:59.121Z,10.60
2023-04-04T10:16:37.575Z,10.60
2023-04-04T10:18:11.276Z,10.50
2023-04-04T10:19:45.382Z,10.60
2023-04-04T10:21:18.719Z,10.60
2023-04-04T10:22:51.699Z,10.70
2023-04-04T10:24:25.081Z,10.80
2023-04-04T10:25:58.929Z,10.80
2023-04-04T10:27:32.377Z,10.80
2023-04-04T10:29:05.627Z,10.90
2023-04-04T10:30:55.624Z,11.00
2023-04-04T10:32:45.718Z,11.00
2023-04-04T10:34:25.870Z,10.90
2023-04-04T10:36:03.463Z,10.90
2023-04-04T10:37:44.206Z,11.10
2023-04-04T10:39:26.008Z,11.20
2023-04-04T10:41:01.541Z,11.30
2023-04-04T10:42:40.755Z,11.30
2023-04-04T10:44:21.955Z,11.00
2023-04-04T10:45:55.664Z,10.90
2023-04-04T10:47:29.325Z,10.90
2023-04-04T10:49:03.624Z,10.90
2023-04-04T10:50:37.279Z,11.00
2023-04-04T10:52:12.185Z,10.90
2023-04-04T10:53:46.290Z,10.80
2023-04-04T10:55:19.753Z,10.80
2023-04-04T10:56:52.847Z,10.70
2023-04-04T10:58:26.048Z,10.80
2023-04-04T10:59:59.840Z,10.90
2023-04-04T11:01:48.417Z,11.00
2023-04-04T11:03:21.155Z,10.90
2023-04-04T11:05:12.232Z,10.80
2023-04-04T11:07:13.900Z,10.60
2023-04-04T11:08:55.824Z,10.40
2023-04-04T11:10:30.634Z,10.30
2023-04-04T11:12:10.583Z,10.10
2023-04-04T11:14:00.500Z,10.10
2023-04-04T11:15:47.620Z,10.10
2023-04-04T11:17:40.759Z,10.10
2023-04-04T11:19:15.107Z,10.10
2023-04-04T11:20:49.405Z,10.10
2023-04-04T11:22:24.438Z,10.20
2023-04-04T11:24:18.122Z,10.10
2023-04-04T11:25:52.356Z,10.00
2023-04-04T11:27:25.158Z,9.90
2023-04-04T11:28:58.831Z,9.70
2023-04-04T11:30:31.750Z,9.60
2023-04-04T11:32:04.483Z,9.60
2023-04-04T11:33:56.110Z,9.70
2023-04-04T11:35:29.211Z,9.70
2023-04-04T11:37:17.490Z,9.60
2023-04-04T11:38:50.541Z,9.70
2023-04-04T11:40:35.604Z,9.70
2023-04-04T11:42:13.578Z,9.80
2023-04-04T11:43:46.777Z,9.80
2023-04-04T11:45:20.749Z,9.80
2023-04-04T11:46:58.044Z,9.70
2023-04-04T11:48:33.537Z,9.70
2023-04-04T11:50:09.692Z,9.70
2023-04-04T11:51:43.011Z,9.70
2023-04-04T11:53:17.660Z,9.70
2023-04-04T11:54:51.034Z,9.70
2023-04-04T11:56:24.799Z,9.70
2023-04-04T11:57:59.590Z,9.70
2023-04-04T11:59:32.469Z,9.60
2023-04-04T12:01:06.340Z,9.60
2023-04-04T12:02:40.420Z,9.60
2023-04-04T12:04:13.912Z,9.60
2023-04-04T12:05:47.896Z,9.60
2023-04-04T12:07:21.043Z,9.60
2023-04-04T12:08:55.243Z,9.60
2023-04-04T12:10:29.608Z,9.60
2023-04-04T12:12:03.384Z,9.60
2023-04-04T12:13:42.528Z,9.60
2023-04-04T12:15:17.830Z,9.60
2023-04-04T12:16:52.910Z,9.70
2023-04-04T12:18:26.335Z,9.60
2023-04-04T12:19:59.050Z,9.50
2023-04-04T12:21:33.066Z,9.50
2023-04-04T12:23:05.801Z,9.40
2023-04-04T12:24:39.985Z,9.30
2023-04-04T12:26:13.053Z,9.40
2023-04-04T12:27:46.048Z,9.30
2023-04-04T12:29:21.584Z,9.40
2023-04-04T12:30:54.383Z,9.40
2023-04-04T12:32:27.260Z,9.50
2023-04-04T12:34:00.618Z,9.40
2023-04-04T12:35:34.369Z,9.40
2023-04-04T12:37:11.298Z,9.40
2023-04-04T12:38:58.695Z,9.40
2023-04-04T12:40:37.343Z,9.30
2023-04-04T12:42:13.313Z,9.30
2023-04-04T12:43:48.106Z,9.30
2023-04-04T12:45:23.525Z,9.30
2023-04-04T12:46:58.916Z,9.40
2023-04-04T12:48:34.152Z,9.30
2023-04-04T12:50:10.359Z,9.30
2023-04-04T12:51:45.877Z,9.30
2023-04-04T12:53:29.131Z,9.30
2023-04-04T12:55:09.658Z,9.40
2023-04-04T12:56:43.844Z,9.50
2023-04-04T12:58:17.655Z,9.50
2023-04-04T12:59:50.615Z,9.50
2023-04-04T13:01:23.423Z,9.50
2023-04-04T13:02:56.474Z,9.50
2023-04-04T13:04:29.589Z,9.50
2023-04-04T13:06:02.498Z,9.40
2023-04-04T13:07:42.832Z,9.40
2023-04-04T13:09:20.204Z,9.20
2023-04-04T13:11:04.481Z,9.30
2023-04-04T13:12:58.324Z,9.20
2023-04-04T13:14:57.821Z,9.20
2023-04-04T13:16:32.962Z,9.30
2023-04-04T13:18:15.325Z,9.30
2023-04-04T13:19:48.022Z,9.40
2023-04-04T13:21:20.992Z,9.40
2023-04-04T13:22:59.515Z,9.50
2023-04-04T13:24:32.222Z,9.50
2023-04-04T13:26:05.769Z,9.50
2023-04-04T13:27:39.015Z,9.60
2023-04-04T13:29:13.042Z,9.70
2023-04-04T13:30:49.216Z,9.70
2023-04-04T13:32:22.546Z,9.70
2023-04-04T13:33:55.290Z,9.60
2023-04-04T13:35:28.145Z,9.50
2023-04-04T13:37:01.046Z,9.50
2023-04-04T13:38:33.819Z,9.40
2023-04-04T13:40:08.092Z,9.50
2023-04-04T13:41:40.800Z,9.50
2023-04-04T13:43:15.062Z,9.40
2023-04-04T13:44:49.070Z,9.40
2023-04-04T13:46:21.829Z,9.40
2023-04-04T13:47:54.641Z,9.30
2023-04-04T13:49:27.480Z,9.30
2023-04-04T13:51:00.213Z,9.20
2023-04-04T13:52:32.906Z,9.10
2023-04-04T13:54:05.776Z,9.10
2023-04-04T13:55:41.793Z,9.10
2023-04-04T13:57:27.070Z,9.10
2023-04-04T13:58:59.810Z,9.10
2023-04-04T14:00:33.843Z,9.20
2023-04-04T14:02:06.612Z,9.20
2023-04-04T14:03:39.397Z,9.30
2023-04-04T14:05:12.395Z,9.20
2023-04-04T14:06:45.090Z,9.20
2023-04-04T14:08:17.781Z,9.10
2023-04-04T14:09:50.489Z,9.10
2023-04-04T14:11:24.227Z,9.10
2023-04-04T14:12:56.921Z,9.10
2023-04-04T14:14:29.674Z,9.10
2023-04-04T14:16:03.730Z,9.00
2023-04-04T14:17:36.574Z,8.90
2023-04-04T14:19:09.329Z,9.00
2023-04-04T14:20:42.181Z,8.90
2023-04-04T14:22:14.869Z,8.90
2023-04-04T14:23:47.599Z,8.80
2023-04-04T14:25:20.687Z,8.80
2023-04-04T14:26:53.391Z,8.90
2023-04-04T14:28:26.208Z,8.90
2023-04-04T14:29:58.898Z,9.00
2023-04-04T14:31:34.778Z,9.00
2023-04-04T14:33:07.640Z,9.00
2023-04-04T14:34:40.424Z,9.00
2023-04-04T14:36:13.121Z,9.00
2023-04-04T14:37:45.886Z,9.00
2023-04-04T14:39:18.626Z,9.00
2023-04-04T14:40:52.330Z,8.90
2023-04-04T14:42:25.310Z,8.90
2023-04-04T14:43:58.096Z,8.90
2023-04-04T14:45:32.086Z,9.00
2023-04-04T14:47:06.192Z,9.00
2023-04-04T14:48:38.996Z,8.90
2023-04-04T14:50:11.981Z,8.90
2023-04-04T14:51:44.823Z,8.90
2023-04-04T14:53:18.291Z,8.90
2023-04-04T14:54:51.282Z,8.90
2023-04-04T14:56:24.005Z,8.90
2023-04-04T14:58:02.743Z,8.90
2023-04-04T14:59:36.563Z,8.90
2023-04-04T15:01:09.446Z,8.90
2023-04-04T15:02:43.534Z,8.90
2023-04-04T15:04:16.275Z,8.90
2023-04-04T15:05:49.527Z,8.90
2023-04-04T15:07:24.142Z,8.90
2023-04-04T15:08:57.398Z,8.90
2023-04-04T15:10:30.214Z,8.90
2023-04-04T15:12:02.938Z,9.00
2023-04-04T15:13:36.268Z,8.90
2023-04-04T15:15:10.020Z,8.90
2023-04-04T15:16:42.750Z,8.90
2023-04-04T15:18:17.766Z,8.90
2023-04-04T15:19:50.890Z,9.00
2023-04-04T15:21:23.566Z,9.00
2023-04-04T15:22:56.275Z,9.00
2023-04-04T15:24:29.002Z,9.00
2023-04-04T15:26:02.861Z,9.10
2023-04-04T15:27:36.217Z,9.10
2023-04-04T15:29:08.927Z,9.10
2023-04-04T15:30:40.995Z,9.20
2023-04-04T15:32:14.272Z,9.20
2023-04-04T15:33:48.498Z,9.20
2023-04-04T15:35:22.109Z,9.20
2023-04-04T15:36:57.624Z,9.20
2023-04-04T15:38:30.381Z,9.20
2023-04-04T15:40:03.080Z,9.10
2023-04-04T15:41:35.827Z,9.10
2023-04-04T15:43:08.532Z,9.10
2023-04-04T15:44:41.224Z,9.10
2023-04-04T15:46:14.388Z,9.10
2023-04-04T15:47:47.236Z,9.20
2023-04-04T15:49:21.278Z,9.20
2023-04-04T15:50:59.452Z,9.10
2023-04-04T15:52:32.140Z,9.20
2023-04-04T15:54:04.928Z,9.20
2023-04-04T15:55:37.601Z,9.20
2023-04-04T15:57:10.325Z,9.20
2023-04-04T15:58:43.046Z,9.20
2023-04-04T16:00:16.924Z,9.20
2023-04-04T16:01:49.863Z,9.20
2023-04-04T16:03:23.905Z,9.20
2023-04-04T16:04:58.226Z,9.20
2023-04-04T16:06:31.169Z,9.10
2023-04-04T16:08:03.952Z,9.10
2023-04-04T16:09:36.757Z,9.10
2023-04-04T16:11:09.512Z,9.20
2023-04-04T16:12:42.187Z,9.20
2023-04-04T16:14:14.877Z,9.20
2023-04-04T16:15:47.626Z,9.20
2023-04-04T16:17:20.382Z,9.20
2023-04-04T16:18:53.163Z,9.20
2023-04-04T16:20:27.582Z,9.20
2023-04-04T16:22:00.274Z,9.20
2023-04-04T16:23:33.200Z,9.10
2023-04-04T16:25:08.469Z,9.10
2023-04-04T16:26:46.983Z,9.10
2023-04-04T16:28:19.652Z,9.10
2023-04-04T16:29:52.330Z,9.10
2023-04-04T16:31:25.350Z,9.10
2023-04-04T16:32:58.119Z,9.00
2023-04-04T16:34:31.187Z,9.00
2023-04-04T16:36:05.615Z,9.00
2023-04-04T16:37:38.301Z,9.10
2023-04-04T16:39:11.277Z,9.00
2023-04-04T16:40:44.181Z,9.00
2023-04-04T16:42:19.270Z,9.00
2023-04-04T16:43:52.842Z,9.00
2023-04-04T16:45:26.009Z,9.00
2023-04-04T16:46:58.844Z,9.00
2023-04-04T16:48:31.633Z,8.90
2023-04-04T16:50:04.700Z,8.90
2023-04-04T16:51:38.803Z,8.90
2023-04-04T16:53:11.718Z,8.80
2023-04-04T16:54:44.415Z,8.90
2023-04-04T16:56:17.191Z,8.90
2023-04-04T16:57:49.938Z,8.80
2023-04-04T16:59:22.710Z,8.80
2023-04-04T17:00:55.539Z,8.80
2023-04-04T17:02:28.343Z,8.80
2023-04-04T17:04:01.183Z,8.80
2023-04-04T17:05:33.955Z,8.80
2023-04-04T17:07:08.006Z,8.80
2023-04-04T17:08:42.953Z,8.80
2023-04-04T17:10:16.536Z,8.90
2023-04-04T17:11:49.563Z,8.80
2023-04-04T17:13:22.312Z,8.70
2023-04-04T17:14:55.006Z,8.70
2023-04-04T17:16:28.336Z,8.70
2023-04-04T17:18:01.610Z,8.70
2023-04-04T17:19:35.268Z,8.70
2023-04-04T17:21:08.118Z,8.70
2023-04-04T17:22:42.277Z,8.70
2023-04-04T17:24:15.231Z,8.70
2023-04-04T17:25:48.012Z,8.70
2023-04-04T17:27:20.776Z,8.80
2023-04-04T17:28:53.496Z,8.70
2023-04-04T17:30:26.480Z,8.60
2023-04-04T17:31:59.730Z,8.60
2023-04-04T17:33:32.988Z,8.50
2023-04-04T17:35:07.740Z,8.40
2023-04-04T17:36:40.976Z,8.40
2023-04-04T17:38:15.087Z,8.40
2023-04-04T17:39:47.823Z,8.30
2023-04-04T17:41:20.543Z,8.30
2023-04-04T17:42:53.281Z,8.20
2023-04-04T17:44:25.974Z,8.10
2023-04-04T17:45:58.741Z,8.10
2023-04-04T17:47:32.255Z,8.00
2023-04-04T17:49:05.060Z,8.00
2023-04-04T17:50:37.983Z,7.90
2023-04-04T17:52:14.098Z,7.90
2023-04-04T17:53:48.247Z,7.70
2023-04-04T17:55:22.937Z,7.70
2023-04-04T17:56:57.102Z,7.70
2023-04-04T17:58:29.800Z,7.60
2023-04-04T18:00:02.713Z,7.60
2023-04-04T18:01:36.791Z,7.60
2023-04-04T18:03:09.880Z,7.50
2023-04-04T18:04:42.859Z,7.50
2023-04-04T18:06:15.792Z,7.50
2023-04-04T18:07:48.493Z,7.50
2023-04-04T18:09:24.103Z,7.40
2023-04-04T18:10:58.650Z,7.30
2023-04-04T18:12:34.554Z,7.30
2023-04-04T18:14:08.727Z,7.20
2023-04-04T18:15:41.937Z,7.20
2023-04-04T18:17:14.889Z,7.20
2023-04-04T18:18:47.591Z,7.10
2023-04-04T18:20:31.874Z,7.10
2023-04-04T18:22:07.521Z,7.00
2023-04-04T18:23:40.526Z,7.00
2023-04-04T18:25:16.509Z,6.90
2023-04-04T18:26:52.049Z,6.90
2023-04-04T18:28:25.746Z,6.80
2023-04-04T18:29:58.455Z,6.80
2023-04-04T18:31:31.255Z,6.70
2023-04-04T18:33:04.120Z,6.70
2023-04-04T18:34:36.936Z,6.60
2023-04-04T18:36:09.740Z,6.60
2023-04-04T18:37:42.431Z,6.50
2023-04-04T18:39:18.374Z,6.50
2023-04-04T18:40:52.738Z,6.50
2023-04-04T18:42:26.077Z,6.50
2023-04-04T18:43:58.923Z,6.40
2023-04-04T18:45:39.520Z,6.40
2023-04-04T18:47:13.212Z,6.40
2023-04-04T18:48:46.337Z,6.40
2023-04-04T18:50:19.127Z,6.40
2023-04-04T18:51:51.832Z,6.30
2023-04-04T18:53:25.013Z,6.30
2023-04-04T18:54:58.239Z,6.30
2023-04-04T18:56:32.280Z,6.20
2023-04-04T18:58:05.033Z,6.20
2023-04-04T18:59:37.924Z,6.20
2023-04-04T19:01:12.671Z,6.20
2023-04-04T19:02:45.626Z,6.20
2023-04-04T19:04:21.045Z,6.10
2023-04-04T19:05:54.714Z,6.10
2023-04-04T19:07:28.018Z,6.10
2023-04-04T19:09:04.281Z,6.10
2023-04-04T19:10:37.110Z,6.00
2023-04-04T19:12:11.269Z,6.00
2023-04-04T19:13:44.004Z,5.90
2023-04-04T19:15:16.905Z,5.90
2023-04-04T19:16:49.725Z,5.90
2023-04-04T19:18:22.507Z,5.80
2023-04-04T19:19:55.297Z,5.80
2023-04-04T19:21:28.035Z,5.80
2023-04-04T19:23:00.786Z,5.70
2023-04-04T19:24:33.471Z,5.70
2023-04-04T19:26:07.339Z,5.70
2023-04-04T19:27:41.383Z,5.60
2023-04-04T19:29:19.412Z,5.60
2023-04-04T19:30:54.660Z,5.60
2023-04-04T19:32:28.931Z,5.60
2023-04-04T19:34:03.380Z,5.60
2023-04-04T19:35:50.828Z,5.50
2023-04-04T19:37:23.692Z,5.50
2023-04-04T19:38:57.284Z,5.50
2023-04-04T19:40:47.646Z,5.50
2023-04-04T19:42:28.140Z,5.50
2023-04-04T19:44:02.478Z,5.50
2023-04-04T19:45:48.784Z,5.50
2023-04-04T19:47:21.684Z,5.50
2023-04-04T19:48:56.100Z,5.40
2023-04-04T19:50:35.362Z,5.40
2023-04-04T19:52:08.672Z,5.40
2023-04-04T19:53:42.730Z,5.40
2023-04-04T19:55:38.728Z,5.40
2023-04-04T19:57:19.206Z,5.40
2023-04-04T19:58:53.751Z,5.40
2023-04-04T20:00:33.656Z,5.40
2023-04-04T20:02:08.420Z,5.30
2023-04-04T20:03:41.436Z,5.40
2023-04-04T20:05:52.890Z,5.30
2023-04-04T20:07:25.993Z,5.30
2023-04-04T20:09:00.033Z,5.30
2023-04-04T20:10:36.888Z,5.30
2023-04-04T20:12:11.757Z,5.30
2023-04-04T20:13:45.430Z,5.30
2023-04-04T20:15:55.138Z,5.30
2023-04-04T20:17:28.203Z,5.30
2023-04-04T20:19:02.131Z,5.30
2023-04-04T20:20:47.265Z,5.20
2023-04-04T20:22:20.033Z,5.20
2023-04-04T20:23:53.982Z,5.20
2023-04-04T20:25:42.087Z,5.20
2023-04-04T20:27:22.899Z,5.20
2023-04-04T20:28:55.809Z,5.10
2023-04-04T20:30:28.487Z,5.10
2023-04-04T20:32:04.622Z,5.10
2023-04-04T20:33:37.880Z,5.10
2023-04-04T20:35:26.609Z,5.10
2023-04-04T20:36:59.313Z,5.10
2023-04-04T20:38:32.111Z,5.10
2023-04-04T20:40:12.799Z,5.10
2023-04-04T20:41:45.649Z,5.00
2023-04-04T20:43:17.395Z,5.00
2023-04-04T20:44:50.256Z,5.00
2023-04-04T20:46:24.209Z,5.00
2023-04-04T20:47:57.858Z,5.00